createdAt,value
2024-03-04T00:00:34.900Z,24
2024-03-04T00:15:33.821Z,24
2024-03-04T00:30:33.808Z,24
2024-03-04T00:45:33.770Z,24
2024-03-04T01:00:33.775Z,24
2024-03-04T01:15:33.271Z,24
2024-03-04T01:30:33.072Z,24
2024-03-04T01:45:33.435Z,24
2024-03-04T02:00:33.502Z,24
2024-03-04T02:15:33.407Z,24
2024-03-04T02:30:33.871Z,24
2024-03-04T02:45:33.313Z,24
2024-03-04T03:00:34.002Z,24
2024-03-04T03:15:34.342Z,24
2024-03-04T03:30:33.460Z,24
2024-03-04T03:45:34.212Z,24
2024-03-04T04:00:34.794Z,24
2024-03-04T04:15:34.161Z,24
2024-03-04T04:30:34.682Z,24
2024-03-04T04:45:34.101Z,24
2024-03-04T05:00:34.464Z,24
2024-03-04T05:15:33.614Z,25
2024-03-04T05:30:33.881Z,25
2024-03-04T05:45:34.219Z,26
2024-03-04T06:00:33.946Z,26
2024-03-04T06:15:33.894Z,27
2024-03-04T06:30:32.986Z,27
2024-03-04T06:45:34.341Z,28
2024-03-04T07:00:33.181Z,28
2024-03-04T07:15:33.425Z,29
2024-03-04T07:30:33.657Z,29
2024-03-04T07:45:33.517Z,29
2024-03-04T08:00:33.546Z,30
2024-03-04T08:15:33.720Z,30
2024-03-04T08:30:33.157Z,30
2024-03-04T08:45:33.665Z,30
2024-03-04T09:00:33.888Z,31
2024-03-04T09:15:33.239Z,31
2024-03-04T09:30:33.361Z,31
2024-03-04T09:45:33.675Z,31
2024-03-04T10:00:34.189Z,31
2024-03-04T10:15:33.234Z,31
2024-03-04T10:30:33.400Z,31
2024-03-04T10:45:33.817Z,32
2024-03-04T11:00:33.109Z,32
2024-03-04T11:15:33.054Z,32
2024-03-04T11:30:33.128Z,32
2024-03-04T11:45:33.925Z,32
2024-03-04T12:00:33.358Z,32
2024-03-04T12:15:33.456Z,32
2024-03-04T12:30:33.217Z,32
2024-03-04T12:45:33.283Z,32
2024-03-04T13:00:34.401Z,32
2024-03-04T13:15:33.594Z,32
2024-03-04T13:30:33.335Z,32
2024-03-04T13:45:33.309Z,32
2024-03-04T14:00:33.413Z,32
2024-03-04T14:15:33.650Z,32
2024-03-04T14:30:33.388Z,32
2024-03-04T14:45:33.941Z,32
2024-03-04T15:00:34.163Z,32
2024-03-04T15:15:33.311Z,32
2024-03-04T15:30:33.773Z,32
2024-03-04T15:45:33.049Z,32
2024-03-04T16:00:33.651Z,32
2024-03-04T16:15:47.833Z,32
2024-03-04T16:30:33.011Z,32
2024-03-04T16:45:32.973Z,32
2024-03-04T17:00:33.960Z,32
2024-03-04T17:15:33.752Z,32
2024-03-04T17:30:33.176Z,32
2024-03-04T17:45:33.387Z,32
2024-03-04T18:00:33.804Z,33
2024-03-04T18:15:34.136Z,33
2024-03-04T18:30:33.407Z,33
2024-03-04T18:45:33.644Z,33
2024-03-04T19:00:33.258Z,33
2024-03-04T19:15:33.162Z,33
2024-03-04T19:30:33.101Z,33
2024-03-04T19:45:33.577Z,33
2024-03-04T20:00:33.920Z,33
2024-03-04T20:15:33.110Z,33
2024-03-04T20:30:33.714Z,33
2024-03-04T20:45:33.494Z,33
2024-03-04T21:00:33.526Z,32
2024-03-04T21:15:33.488Z,32
2024-03-04T21:30:33.793Z,32
2024-03-04T21:45:33.963Z,32
2024-03-04T22:00:33.634Z,32
2024-03-04T22:15:33.408Z,32
2024-03-04T22:30:33.052Z,32
2024-03-04T22:45:33.229Z,32
2024-03-04T23:00:33.600Z,32
2024-03-04T23:15:33.415Z,32
2024-03-04T23:30:32.652Z,32
2024-03-04T23:45:33.369Z,32
